Time;durP1;ratioP1;P1;durP2;ratioP2;P2;SDS_P1;SDS_P2;PMS_P1;PMS_P2;Temp;Humidity;BMP_temperature;BMP_pressure;BME280_temperature;BME280_humidity;BME280_pressure;Samples;Min_cycle;Max_cycle;Signal;HPM_P1;HPM_P2
2021/05/21 00:01:46;;;;;;;0.45;0.45;;;14.70;97.10;;;;;;5078267;28;20377;-79
2021/05/21 00:04:12;;;;;;;0.00;0.00;;;14.60;97.30;;;;;;5069966;28;20033;-79
2021/05/21 00:16:44;;;;;;;5.80;0.22;;;14.50;97.30;;;;;;5078448;28;20043;-79
2021/05/21 00:19:10;;;;;;;0.10;0.10;;;14.60;97.10;;;;;;5070045;28;20046;-79
2021/05/21 00:21:36;;;;;;;0.00;0.00;;;14.70;97.00;;;;;;5053019;28;20459;-79
2021/05/21 00:24:02;;;;;;;0.00;0.00;;;14.50;97.40;;;;;;5086700;28;20031;-79
2021/05/21 00:26:28;;;;;;;0.10;0.10;;;14.50;97.60;;;;;;5087697;28;20107;-79
2021/05/21 00:28:54;;;;;;;0.10;0.10;;;14.30;97.40;;;;;;5069996;28;20708;-79
2021/05/21 00:31:19;;;;;;;0.10;0.10;;;14.30;97.50;;;;;;5069572;28;20369;-79
2021/05/21 00:33:45;;;;;;;0.10;0.10;;;14.30;97.50;;;;;;5079134;28;20099;-79
2021/05/21 00:36:11;;;;;;;0.00;0.00;;;14.10;97.80;;;;;;5070481;28;20056;-79
2021/05/21 00:38:36;;;;;;;0.10;0.10;;;14.20;97.70;;;;;;5072780;28;20033;-79
2021/05/21 00:41:03;;;;;;;0.10;0.10;;;14.20;97.50;;;;;;5070970;28;20039;-79
2021/05/21 00:43:29;;;;;;;0.10;0.10;;;14.20;97.50;;;;;;5087904;28;20048;-79
2021/05/21 00:46:05;;;;;;;0.10;0.10;;;14.10;98.00;;;;;;5084743;28;20075;-79
2021/05/21 00:48:40;;;;;;;0.05;0.05;;;14.10;97.70;;;;;;5075477;28;20081;-79
2021/05/21 00:51:05;;;;;;;0.10;0.10;;;14.10;97.80;;;;;;5071705;28;20070;-79
2021/05/21 00:53:32;;;;;;;0.10;0.10;;;14.00;97.90;;;;;;5058950;28;20060;-79
2021/05/21 00:55:59;;;;;;;;;;;14.10;97.80;;;;;;5071141;28;20051;-79
2021/05/21 00:58:25;;;;;;;0.10;0.10;;;14.10;97.90;;;;;;5069084;28;19913;-79
2021/05/21 01:00:55;;;;;;;0.20;0.20;;;14.20;97.70;;;;;;5084913;28;20099;-79
2021/05/21 01:03:21;;;;;;;0.10;0.10;;;14.10;98.00;;;;;;5065706;28;20033;-79
2021/05/21 01:05:47;;;;;;;0.10;0.10;;;13.70;98.50;;;;;;5085865;28;20027;-79
2021/05/21 01:08:17;;;;;;;0.10;0.10;;;14.00;98.60;;;;;;5073324;28;20043;-79
2021/05/21 01:10:42;;;;;;;0.00;0.00;;;14.20;98.10;;;;;;5069127;28;20024;-79
2021/05/21 01:13:08;;;;;;;0.00;0.00;;;14.20;97.80;;;;;;5075362;28;20024;-79
2021/05/21 01:15:42;;;;;;;0.00;0.00;;;14.20;97.40;;;;;;5069069;28;20112;-79
2021/05/21 01:18:10;;;;;;;0.10;0.10;;;14.20;97.80;;;;;;5076739;28;20134;-79
2021/05/21 01:20:37;;;;;;;0.10;0.10;;;14.30;99.90;;;;;;5079734;28;20107;-79
2021/05/21 01:23:04;;;;;;;0.77;0.63;;;14.00;98.30;;;;;;5067027;28;20028;-79
2021/05/21 01:25:31;;;;;;;0.10;0.10;;;14.20;98.10;;;;;;5070147;28;20074;-79
2021/05/21 01:27:58;;;;;;;0.10;0.10;;;14.20;97.70;;;;;;5075736;28;20020;-79
2021/05/21 01:30:26;;;;;;;0.30;0.30;;;14.30;98.00;;;;;;5070057;28;20020;-79
2021/05/21 01:32:53;;;;;;;0.57;0.57;;;14.10;97.90;;;;;;5070858;28;20404;-79
2021/05/21 01:35:18;;;;;;;;;;;14.30;97.90;;;;;;5069599;28;20036;-79
2021/05/21 01:37:47;;;;;;;0.10;0.10;;;14.30;97.60;;;;;;5083142;28;19922;-79
2021/05/21 01:40:14;;;;;;;0.17;0.17;;;14.20;98.10;;;;;;5074197;28;20310;-79
2021/05/21 01:42:40;;;;;;;;;;;14.00;98.60;;;;;;5062707;28;20032;-79
2021/05/21 01:45:07;;;;;;;0.10;0.10;;;13.80;99.40;;;;;;5075345;28;19969;-79
2021/05/21 01:47:56;;;;;;;0.00;0.00;;;13.50;99.90;;;;;;5081402;28;20028;-80
2021/05/21 01:50:24;;;;;;;0.10;0.10;;;13.50;99.90;;;;;;5071840;28;20507;-80
2021/05/21 01:52:49;;;;;;;0.43;0.40;;;13.50;99.90;;;;;;5081215;28;20020;-79
2021/05/21 01:55:15;;;;;;;0.00;0.00;;;13.50;99.90;;;;;;5078057;28;20483;-79
2021/05/21 01:57:42;;;;;;;0.10;0.10;;;13.50;99.90;;;;;;5077750;28;20071;-79
2021/05/21 02:00:10;;;;;;;0.10;0.10;;;13.50;99.90;;;;;;5069097;28;20107;-79
2021/05/21 02:02:37;;;;;;;0.00;0.00;;;13.50;99.90;;;;;;5075562;28;20035;-79
2021/05/21 02:05:04;;;;;;;0.05;0.05;;;13.40;99.90;;;;;;5070421;28;20039;-79
2021/05/21 02:07:30;;;;;;;0.10;0.10;;;13.70;99.90;;;;;;5067558;28;20539;-79
2021/05/21 02:09:59;;;;;;;0.00;0.00;;;13.60;99.90;;;;;;5076995;28;20111;-78
2021/05/21 02:12:27;;;;;;;0.15;0.15;;;13.60;99.90;;;;;;5074976;28;20032;-79
2021/05/21 02:14:54;;;;;;;0.00;0.00;;;13.60;99.90;;;;;;5075054;28;20056;-79
2021/05/21 02:17:20;;;;;;;0.10;0.10;;;13.40;99.90;;;;;;5076809;28;20050;-79
2021/05/21 02:19:46;;;;;;;0.10;0.10;;;13.30;99.90;;;;;;5074417;28;20028;-79
2021/05/21 02:22:12;;;;;;;0.10;0.10;;;13.20;99.90;;;;;;5068279;28;20553;-79
2021/05/21 02:24:39;;;;;;;0.00;0.00;;;13.20;99.90;;;;;;5079724;28;20054;-79
2021/05/21 02:27:05;;;;;;;0.00;0.00;;;13.10;99.90;;;;;;5078387;28;20044;-79
2021/05/21 02:29:31;;;;;;;0.40;0.20;;;12.90;99.90;;;;;;5070117;28;20043;-79
2021/05/21 02:31:57;;;;;;;0.10;0.10;;;12.80;99.90;;;;;;5068849;28;20029;-79
2021/05/21 02:34:23;;;;;;;0.10;0.10;;;12.80;99.90;;;;;;5080122;28;20161;-79
2021/05/21 02:36:49;;;;;;;0.08;0.08;;;12.80;99.90;;;;;;5064426;28;20029;-79
2021/05/21 02:39:14;;;;;;;0.00;0.00;;;12.80;99.90;;;;;;5047794;28;20033;-79
2021/05/21 02:41:40;;;;;;;0.10;0.10;;;12.90;99.90;;;;;;5065250;28;20089;-79
2021/05/21 02:44:06;;;;;;;0.10;0.10;;;13.00;99.90;;;;;;5077087;28;20377;-79
2021/05/21 02:46:32;;;;;;;0.00;0.00;;;13.00;99.90;;;;;;5061726;28;20218;-79
2021/05/21 02:48:58;;;;;;;0.20;0.20;;;12.80;99.90;;;;;;5066196;28;20029;-79
2021/05/21 02:51:24;;;;;;;0.00;0.00;;;12.70;99.90;;;;;;5074982;28;20753;-79
2021/05/21 02:53:49;;;;;;;0.10;0.10;;;12.70;99.90;;;;;;5068176;28;20052;-79
2021/05/21 02:56:15;;;;;;;0.10;0.10;;;12.50;99.90;;;;;;5068951;28;20780;-79
2021/05/21 02:58:41;;;;;;;0.03;0.03;;;12.60;99.90;;;;;;5081838;28;20523;-79
2021/05/21 03:01:07;;;;;;;0.00;0.00;;;12.70;99.90;;;;;;5081168;28;20031;-79
2021/05/21 03:03:33;;;;;;;0.10;0.10;;;12.80;99.90;;;;;;5084545;28;20038;-79
2021/05/21 03:05:59;;;;;;;0.00;0.00;;;12.80;99.90;;;;;;5083707;28;20440;-79
2021/05/21 03:08:24;;;;;;;0.08;0.08;;;12.70;99.90;;;;;;5084527;28;20111;-79
2021/05/21 03:10:50;;;;;;;0.10;0.10;;;12.40;99.90;;;;;;5081629;28;20035;-79
2021/05/21 03:13:16;;;;;;;0.10;0.10;;;12.40;99.90;;;;;;5083272;28;20054;-79
2021/05/21 03:15:43;;;;;;;0.03;0.03;;;12.20;99.90;;;;;;5075327;28;20032;-79
2021/05/21 03:18:22;;;;;;;0.00;0.00;;;12.10;99.90;;;;;;5074201;28;20062;-79
2021/05/21 03:20:48;;;;;;;0.10;0.10;;;12.10;99.90;;;;;;5078756;28;20036;-79
2021/05/21 03:23:14;;;;;;;0.10;0.10;;;12.20;99.90;;;;;;5085761;28;20035;-78
2021/05/21 03:25:42;;;;;;;0.10;0.10;;;12.30;99.90;;;;;;5083362;28;20093;-79
2021/05/21 03:28:10;;;;;;;0.00;0.00;;;12.60;99.90;;;;;;5070250;28;20036;-79
2021/05/21 03:30:37;;;;;;;0.10;0.10;;;12.70;99.90;;;;;;5071280;28;20020;-79
2021/05/21 03:33:03;;;;;;;0.10;0.10;;;12.60;99.90;;;;;;5075585;28;20029;-79
2021/05/21 03:35:29;;;;;;;0.00;0.00;;;12.50;99.90;;;;;;5074380;28;20788;-79
2021/05/21 03:37:55;;;;;;;0.20;0.20;;;12.50;99.90;;;;;;5074079;28;20064;-79
2021/05/21 03:40:21;;;;;;;0.00;0.00;;;12.70;99.90;;;;;;5077826;28;20032;-79
2021/05/21 03:42:48;;;;;;;0.10;0.10;;;12.60;99.90;;;;;;5085239;28;20052;-79
2021/05/21 03:45:28;;;;;;;0.00;0.00;;;12.50;99.90;;;;;;5075948;28;20385;-79
2021/05/21 03:48:07;;;;;;;0.00;0.00;;;12.40;99.90;;;;;;5069674;28;20024;-79
2021/05/21 03:50:33;;;;;;;0.10;0.10;;;12.30;99.90;;;;;;5068833;28;20149;-79
2021/05/21 03:52:59;;;;;;;0.10;0.10;;;12.30;99.90;;;;;;5082984;28;20088;-79
2021/05/21 03:55:25;;;;;;;0.20;0.20;;;12.20;99.90;;;;;;5082708;28;20494;-79
2021/05/21 03:57:51;;;;;;;0.10;0.10;;;12.30;99.90;;;;;;5079555;28;20085;-79
2021/05/21 04:00:20;;;;;;;0.10;0.10;;;12.20;99.90;;;;;;5074893;28;20109;-79
2021/05/21 04:02:49;;;;;;;0.10;0.10;;;12.40;99.90;;;;;;5084789;28;20267;-79
2021/05/21 04:05:16;;;;;;;0.00;0.00;;;12.30;99.90;;;;;;5084890;28;20028;-78
2021/05/21 04:07:41;;;;;;;0.00;0.00;;;12.00;99.90;;;;;;5073607;28;20025;-79
2021/05/21 04:10:08;;;;;;;0.10;0.10;;;11.80;99.90;;;;;;5076392;28;20027;-79
2021/05/21 04:12:34;;;;;;;0.10;0.10;;;11.70;99.90;;;;;;5082831;28;20480;-79
2021/05/21 04:15:15;;;;;;;0.03;0.03;;;11.70;99.90;;;;;;5078657;28;20033;-79
2021/05/21 04:17:47;;;;;;;0.17;0.17;;;11.70;99.90;;;;;;5069232;28;20128;-79
2021/05/21 04:20:13;;;;;;;0.32;0.20;;;11.70;99.90;;;;;;5075614;28;20101;-80
2021/05/21 04:22:40;;;;;;;0.00;0.00;;;11.60;99.90;;;;;;5080689;28;20023;-79
2021/05/21 04:25:06;;;;;;;0.10;0.10;;;11.70;99.90;;;;;;5082904;28;20037;-79
2021/05/21 04:27:32;;;;;;;0.22;0.22;;;11.70;99.90;;;;;;5076610;28;20103;-79
2021/05/21 04:30:02;;;;;;;0.00;0.00;;;11.80;99.90;;;;;;5079487;28;20470;-80
2021/05/21 04:32:31;;;;;;;0.10;0.10;;;12.00;99.90;;;;;;5068265;28;20063;-80
2021/05/21 04:35:13;;;;;;;0.10;0.10;;;12.10;99.90;;;;;;5079182;28;20464;-80
2021/05/21 04:37:39;;;;;;;0.28;0.28;;;12.30;99.90;;;;;;5084008;28;20510;-80
2021/05/21 04:40:05;;;;;;;1.10;0.30;;;12.30;99.90;;;;;;5076543;28;20028;-81
2021/05/21 04:42:31;;;;;;;0.10;0.10;;;12.30;99.90;;;;;;5086993;28;20056;-80
2021/05/21 04:44:57;;;;;;;0.53;0.37;;;12.40;99.90;;;;;;5071016;28;20052;-80
2021/05/21 04:47:23;;;;;;;0.00;0.00;;;12.50;99.90;;;;;;5082104;28;20056;-80
2021/05/21 04:49:49;;;;;;;0.10;0.10;;;12.60;99.90;;;;;;5078789;28;20762;-81
2021/05/21 04:52:14;;;;;;;1.53;0.93;;;12.80;99.90;;;;;;5083151;28;20025;-81
2021/05/21 04:54:40;;;;;;;0.00;0.00;;;13.50;99.90;;;;;;5081841;28;20016;-80
2021/05/21 04:57:06;;;;;;;0.10;0.10;;;13.50;99.90;;;;;;5082910;28;20032;-79
2021/05/21 04:59:32;;;;;;;0.10;0.10;;;13.40;99.90;;;;;;5070044;28;20025;-79
2021/05/21 05:01:58;;;;;;;0.30;0.30;;;13.40;99.90;;;;;;5068399;28;20051;-80
2021/05/21 05:04:24;;;;;;;0.10;0.10;;;13.40;99.90;;;;;;5085864;28;20503;-79
2021/05/21 05:06:50;;;;;;;0.00;0.00;;;13.40;99.90;;;;;;5072354;28;20060;-80
2021/05/21 05:09:16;;;;;;;0.20;0.20;;;13.40;99.90;;;;;;5073853;28;20028;-79
2021/05/21 05:11:43;;;;;;;0.00;0.00;;;13.20;99.90;;;;;;5069510;28;20575;-79
2021/05/21 05:14:09;;;;;;;;;;;12.90;99.90;;;;;;5075184;28;20025;-78
2021/05/21 05:16:35;;;;;;;0.30;0.30;;;12.80;99.90;;;;;;5064520;28;19986;-79
2021/05/21 05:19:01;;;;;;;0.15;0.15;;;12.80;99.90;;;;;;5059770;28;20032;-80
2021/05/21 05:21:27;;;;;;;0.10;0.10;;;12.90;99.90;;;;;;5058746;28;20107;-80
2021/05/21 05:23:55;;;;;;;0.35;0.35;;;13.00;99.90;;;;;;5064554;28;20062;-79
2021/05/21 05:26:21;;;;;;;0.10;0.10;;;13.10;99.90;;;;;;5066714;28;20055;-80
2021/05/21 05:28:49;;;;;;;0.22;0.22;;;13.10;99.90;;;;;;5067782;28;20032;-79
2021/05/21 05:31:19;;;;;;;0.08;0.08;;;13.10;99.90;;;;;;5060235;28;20464;-79
2021/05/21 05:33:45;;;;;;;0.10;0.10;;;13.10;99.90;;;;;;5072632;28;20035;-79
2021/05/21 05:36:11;;;;;;;0.00;0.00;;;13.20;99.90;;;;;;5088516;28;20559;-79
2021/05/21 05:38:37;;;;;;;0.00;0.00;;;13.30;99.90;;;;;;5087540;28;20024;-79
2021/05/21 05:41:02;;;;;;;0.08;0.08;;;13.20;99.90;;;;;;5089256;28;20023;-79
2021/05/21 05:43:29;;;;;;;0.10;0.10;;;13.10;99.90;;;;;;5087928;28;20036;-79
2021/05/21 05:45:55;;;;;;;0.10;0.10;;;13.20;99.90;;;;;;5079339;28;20028;-79
2021/05/21 05:48:21;;;;;;;0.10;0.10;;;13.20;99.90;;;;;;5066120;28;20085;-80
2021/05/21 05:50:48;;;;;;;0.10;0.10;;;13.40;99.90;;;;;;5068048;28;20024;-80
2021/05/21 05:53:15;;;;;;;0.10;0.10;;;13.50;99.90;;;;;;5085538;28;20028;-79
2021/05/21 05:55:41;;;;;;;0.10;0.10;;;13.50;99.90;;;;;;5077645;28;20039;-79
2021/05/21 05:58:08;;;;;;;0.32;0.32;;;13.80;99.90;;;;;;5076245;28;20605;-80
2021/05/21 06:00:34;;;;;;;;;;;13.90;99.90;;;;;;5068519;28;20062;-79
2021/05/21 06:03:07;;;;;;;1.63;0.45;;;14.00;99.90;;;;;;5067015;28;20372;-80
2021/05/21 06:05:34;;;;;;;2.70;0.82;;;13.90;99.90;;;;;;5068397;28;20115;-80
2021/05/21 06:08:02;;;;;;;1.15;1.05;;;13.90;99.90;;;;;;5068794;28;20093;-80
2021/05/21 06:10:29;;;;;;;0.35;0.35;;;14.30;99.90;;;;;;5076181;28;20039;-80
2021/05/21 06:13:05;;;;;;;0.32;0.32;;;14.60;99.90;;;;;;5049512;28;20108;-80
2021/05/21 06:15:32;;;;;;;0.17;0.17;;;14.80;99.90;;;;;;5067228;28;20094;-80
2021/05/21 06:17:58;;;;;;;0.00;0.00;;;15.50;99.90;;;;;;5066877;28;20455;-79
2021/05/21 06:20:25;;;;;;;0.10;0.10;;;15.90;99.90;;;;;;5068159;28;20035;-80
2021/05/21 06:22:51;;;;;;;0.20;0.20;;;15.00;99.90;;;;;;5066561;28;20062;-80
2021/05/21 06:25:22;;;;;;;0.40;0.40;;;14.80;99.90;;;;;;5077947;28;20575;-80
2021/05/21 06:27:49;;;;;;;0.10;0.10;;;15.00;99.90;;;;;;5087133;28;20270;-80
2021/05/21 06:30:16;;;;;;;0.10;0.10;;;15.30;99.90;;;;;;5088777;28;20575;-80
2021/05/21 06:32:43;;;;;;;0.75;0.75;;;15.70;99.90;;;;;;5078111;28;20420;-79
2021/05/21 06:35:11;;;;;;;1.38;1.27;;;15.80;99.90;;;;;;5078105;28;20800;-79
2021/05/21 06:37:38;;;;;;;1.30;1.20;;;15.80;99.90;;;;;;5093811;28;20074;-80
2021/05/21 06:40:04;;;;;;;;;;;15.20;99.90;;;;;;5095366;28;20099;-80
2021/05/21 06:42:30;;;;;;;0.10;0.10;;;14.60;99.90;;;;;;5093587;28;19916;-80
2021/05/21 06:44:55;;;;;;;0.52;0.35;;;14.30;99.90;;;;;;5095002;28;20039;-80
2021/05/21 06:47:21;;;;;;;0.10;0.10;;;14.20;99.90;;;;;;5095008;28;20031;-80
2021/05/21 06:49:48;;;;;;;0.10;0.10;;;13.50;99.90;;;;;;5091807;28;20032;-81
2021/05/21 06:52:15;;;;;;;0.05;0.05;;;14.00;99.90;;;;;;5095376;28;20020;-80
2021/05/21 06:54:43;;;;;;;1.13;0.38;;;14.50;99.90;;;;;;5095393;28;20016;-80
2021/05/21 06:57:09;;;;;;;15.52;0.47;;;14.40;99.90;;;;;;5093701;28;20042;-81
2021/05/21 06:59:35;;;;;;;0.10;0.10;;;14.30;99.90;;;;;;5081983;28;20036;-81
2021/05/21 07:02:02;;;;;;;0.40;0.40;;;14.30;99.90;;;;;;5074952;28;20499;-81
2021/05/21 07:04:28;;;;;;;0.30;0.30;;;14.40;99.90;;;;;;5075053;28;20036;-81
2021/05/21 07:06:54;;;;;;;0.13;0.13;;;14.50;99.90;;;;;;5086358;28;20029;-81
2021/05/21 07:09:20;;;;;;;0.27;0.27;;;14.50;99.90;;;;;;5078343;28;20046;-81
2021/05/21 07:11:46;;;;;;;0.10;0.10;;;14.30;99.90;;;;;;5095171;28;20399;-80
2021/05/21 07:14:13;;;;;;;0.20;0.20;;;14.10;99.90;;;;;;5094522;28;20024;-80
2021/05/21 07:16:39;;;;;;;1.55;0.30;;;13.90;99.90;;;;;;5094902;28;20024;-80
2021/05/21 07:19:05;;;;;;;0.22;0.22;;;13.90;99.90;;;;;;5094514;28;20460;-80
2021/05/21 07:21:31;;;;;;;0.10;0.10;;;13.70;99.90;;;;;;5095029;28;20134;-80
2021/05/21 07:23:57;;;;;;;0.10;0.10;;;13.50;99.90;;;;;;5075654;28;20144;-80
2021/05/21 07:26:25;;;;;;;0.10;0.10;;;13.90;99.90;;;;;;5074579;28;20074;-80
2021/05/21 07:28:53;;;;;;;0.10;0.10;;;14.10;99.90;;;;;;5074296;28;20055;-79
2021/05/21 07:31:18;;;;;;;0.10;0.10;;;14.30;99.90;;;;;;5073282;28;20012;-80
2021/05/21 07:33:44;;;;;;;0.10;0.10;;;14.40;99.90;;;;;;5078214;28;20472;-80
2021/05/21 07:36:10;;;;;;;0.10;0.10;;;14.40;99.90;;;;;;5090708;28;20024;-80
2021/05/21 07:38:36;;;;;;;0.30;0.30;;;14.70;99.90;;;;;;5080511;28;20043;-81
2021/05/21 07:41:03;;;;;;;0.20;0.20;;;14.70;99.90;;;;;;5068256;28;20070;-81
2021/05/21 07:43:29;;;;;;;0.20;0.20;;;14.40;99.90;;;;;;5069900;28;20263;-81
2021/05/21 07:45:56;;;;;;;0.30;0.30;;;14.10;99.90;;;;;;5069179;28;20488;-81
2021/05/21 07:48:23;;;;;;;0.10;0.10;;;14.20;99.90;;;;;;5069235;28;20698;-81
2021/05/21 07:50:48;;;;;;;0.22;0.20;;;14.30;99.90;;;;;;5070788;28;20481;-81
2021/05/21 07:53:14;;;;;;;0.10;0.10;;;14.60;99.90;;;;;;5070754;28;20032;-81
2021/05/21 07:55:40;;;;;;;0.00;0.00;;;14.60;99.90;;;;;;5070641;28;20024;-81
2021/05/21 07:58:07;;;;;;;0.70;0.70;;;14.60;99.90;;;;;;5070771;28;20033;-81
2021/05/21 08:00:33;;;;;;;;;;;14.50;99.90;;;;;;5071140;28;20024;-81
2021/05/21 08:02:58;;;;;;;0.00;0.00;;;15.00;99.90;;;;;;5069407;28;19915;-81
2021/05/21 08:05:24;;;;;;;0.00;0.00;;;15.50;99.90;;;;;;5070381;28;20033;-81
2021/05/21 08:07:50;;;;;;;0.37;0.10;;;15.60;99.90;;;;;;5070513;28;20120;-82
2021/05/21 08:10:16;;;;;;;0.00;0.00;;;16.00;99.90;;;;;;5070739;28;20024;-81
2021/05/21 08:12:42;;;;;;;0.20;0.20;;;15.90;99.90;;;;;;5070374;28;20100;-82
2021/05/21 08:15:08;;;;;;;0.00;0.00;;;16.00;99.90;;;;;;5083304;28;20020;-82
2021/05/21 08:17:34;;;;;;;0.10;0.10;;;16.00;99.90;;;;;;5090564;28;20086;-81
2021/05/21 08:20:02;;;;;;;4.78;0.20;;;16.10;99.90;;;;;;5090913;28;20028;-81
2021/05/21 08:22:29;;;;;;;0.10;0.10;;;16.20;99.90;;;;;;5090927;28;20031;-81
2021/05/21 08:24:55;;;;;;;0.00;0.00;;;16.20;99.90;;;;;;5087990;28;20108;-81
2021/05/21 08:27:20;;;;;;;0.00;0.00;;;16.20;99.90;;;;;;5070578;28;20064;-81
2021/05/21 08:29:46;;;;;;;0.30;0.23;;;16.40;99.90;;;;;;5069060;28;20017;-81
2021/05/21 08:32:12;;;;;;;0.10;0.10;;;16.30;99.90;;;;;;5063118;28;20021;-81
2021/05/21 08:34:38;;;;;;;0.00;0.00;;;16.50;99.90;;;;;;5050759;28;20416;-81
2021/05/21 08:37:05;;;;;;;0.10;0.10;;;17.00;99.90;;;;;;5050118;28;20813;-81
2021/05/21 08:39:31;;;;;;;0.05;0.05;;;17.70;99.90;;;;;;5050592;28;20107;-81
2021/05/21 08:41:59;;;;;;;0.17;0.17;;;17.40;99.90;;;;;;5050285;28;20492;-81
2021/05/21 08:44:27;;;;;;;0.05;0.05;;;17.30;99.90;;;;;;5049013;28;20036;-82
2021/05/21 08:46:53;;;;;;;0.00;0.00;;;17.90;99.10;;;;;;5050120;28;20033;-81
2021/05/21 08:49:22;;;;;;;0.00;0.00;;;19.20;98.00;;;;;;5048829;28;20021;-81
2021/05/21 08:51:47;;;;;;;0.00;0.00;;;20.40;96.70;;;;;;5048656;28;20400;-81
2021/05/21 08:54:13;;;;;;;0.00;0.00;;;19.70;95.60;;;;;;5049372;28;20112;-82
2021/05/21 08:56:42;;;;;;;0.00;0.00;;;20.10;94.90;;;;;;5050252;28;20029;-82
2021/05/21 08:59:07;;;;;;;0.00;0.00;;;20.50;94.90;;;;;;5049723;28;20647;-82
2021/05/21 09:01:33;;;;;;;0.00;0.00;;;21.20;93.00;;;;;;5049484;28;20065;-82
2021/05/21 09:04:01;;;;;;;0.10;0.10;;;21.20;93.80;;;;;;5049720;28;20033;-82
2021/05/21 09:06:28;;;;;;;1.55;0.10;;;21.40;93.50;;;;;;5049861;28;20781;-82
2021/05/21 09:08:56;;;;;;;0.20;0.20;;;19.30;95.10;;;;;;5049478;28;20018;-82
2021/05/21 09:11:39;;;;;;;0.00;0.00;;;20.10;95.10;;;;;;5049547;28;20032;-82
2021/05/21 09:14:10;;;;;;;0.13;0.13;;;20.10;95.40;;;;;;5049438;28;20028;-82
2021/05/21 09:16:38;;;;;;;0.00;0.00;;;19.70;95.60;;;;;;5049583;28;20465;-82
2021/05/21 09:19:10;;;;;;;0.00;0.00;;;20.70;95.00;;;;;;5049109;28;20136;-82
2021/05/21 09:22:06;;;;;;;0.00;0.00;;;22.00;92.70;;;;;;5049567;28;20526;-82
2021/05/21 09:24:45;;;;;;;0.00;0.00;;;21.90;92.70;;;;;;5049395;28;20024;-81
2021/05/21 09:27:12;;;;;;;0.32;0.10;;;21.80;94.50;;;;;;5049260;28;20028;-82
2021/05/21 09:29:45;;;;;;;0.00;0.00;;;22.70;91.90;;;;;;5049278;28;20029;-82
2021/05/21 09:32:19;;;;;;;0.00;0.00;;;24.30;91.40;;;;;;5054984;28;20400;-82
2021/05/21 09:34:48;;;;;;;0.20;0.10;;;27.20;82.20;;;;;;5068966;28;20020;-82
2021/05/21 09:37:24;;;;;;;0.00;0.00;;;27.10;82.60;;;;;;5081893;28;20074;-82
2021/05/21 09:39:59;;;;;;;0.07;0.07;;;27.20;75.30;;;;;;5089249;28;20019;-82
2021/05/21 09:42:25;;;;;;;0.00;0.00;;;30.70;68.00;;;;;;5088843;28;20028;-83
2021/05/21 09:44:51;;;;;;;0.00;0.00;;;27.50;66.30;;;;;;5077001;28;20797;-83
2021/05/21 09:47:17;;;;;;;0.00;0.00;;;30.70;64.40;;;;;;5078641;28;20032;-82
2021/05/21 09:49:42;;;;;;;0.03;0.00;;;30.40;79.00;;;;;;5063722;28;20287;-83
2021/05/21 09:52:11;;;;;;;0.00;0.00;;;29.40;65.50;;;;;;5047581;28;20021;-83
2021/05/21 09:54:56;;;;;;;0.15;0.15;;;31.50;58.70;;;;;;5047287;28;20053;-84
2021/05/21 09:57:35;;;;;;;0.00;0.00;;;31.00;60.10;;;;;;5049017;28;20047;-85
2021/05/21 10:00:04;;;;;;;0.00;0.00;;;29.70;58.80;;;;;;5087427;28;20070;-84
2021/05/21 10:02:31;;;;;;;0.00;0.00;;;30.50;59.00;;;;;;5081225;28;20032;-84
2021/05/21 10:04:58;;;;;;;0.00;0.00;;;31.00;59.40;;;;;;5068730;28;20028;-84
2021/05/21 10:07:25;;;;;;;0.00;0.00;;;28.80;56.80;;;;;;5067721;28;20106;-84
2021/05/21 10:09:51;;;;;;;0.00;0.00;;;28.70;64.00;;;;;;5076374;28;20573;-85
2021/05/21 10:12:17;;;;;;;;;;;24.60;74.30;;;;;;5087801;28;20589;-84
2021/05/21 10:14:51;;;;;;;0.00;0.00;;;27.90;67.60;;;;;;5072782;28;19904;-84
2021/05/21 10:17:18;;;;;;;0.00;0.00;;;28.60;58.30;;;;;;5047182;28;20099;-84
2021/05/21 10:19:46;;;;;;;0.00;0.00;;;27.40;65.10;;;;;;5048349;28;20043;-84
2021/05/21 10:22:37;;;;;;;0.00;0.00;;;26.40;66.20;;;;;;5048405;28;20031;-84
2021/05/21 10:25:09;;;;;;;0.65;0.32;;;29.00;58.40;;;;;;5061026;28;20040;-84
2021/05/21 10:27:40;;;;;;;0.00;0.00;;;30.60;53.50;;;;;;5067192;28;20407;-83
2021/05/21 10:30:07;;;;;;;4.97;0.35;;;29.00;59.30;;;;;;5066986;28;20027;-84
2021/05/21 10:32:35;;;;;;;0.47;0.10;;;25.90;61.70;;;;;;5075173;28;20029;-84
2021/05/21 10:35:14;;;;;;;0.00;0.00;;;23.30;68.00;;;;;;5067211;28;20027;-84
2021/05/21 10:37:40;;;;;;;0.10;0.10;;;22.50;72.70;;;;;;5068487;28;20020;-84
2021/05/21 10:40:29;;;;;;;0.00;0.00;;;24.70;69.60;;;;;;5067051;28;20599;-83
2021/05/21 10:42:55;;;;;;;0.00;0.00;;;29.20;60.10;;;;;;5068034;28;20040;-83
2021/05/21 10:45:22;;;;;;;0.10;0.10;;;27.10;62.10;;;;;;5068091;28;20070;-84
2021/05/21 10:47:59;;;;;;;2.80;0.20;;;24.10;65.60;;;;;;5068264;28;20025;-83
2021/05/21 10:50:36;;;;;;;0.00;0.00;;;24.60;67.30;;;;;;5068292;28;20112;-84
2021/05/21 10:53:04;;;;;;;0.00;0.00;;;25.30;65.30;;;;;;5067874;28;20052;-84
2021/05/21 10:55:54;;;;;;;0.10;0.10;;;25.40;64.40;;;;;;5068265;28;20035;-83
2021/05/21 10:58:29;;;;;;;0.00;0.00;;;24.20;69.10;;;;;;5069105;28;20559;-83
2021/05/21 11:01:07;;;;;;;0.00;0.00;;;25.60;67.80;;;;;;5068797;28;20033;-83
2021/05/21 11:04:01;;;;;;;0.00;0.00;;;25.80;66.70;;;;;;5073554;28;20047;-82
2021/05/21 11:06:29;;;;;;;0.10;0.10;;;25.20;65.10;;;;;;5081355;28;20059;-83
2021/05/21 11:09:05;;;;;;;0.00;0.00;;;24.90;68.60;;;;;;5065851;28;20567;-83
2021/05/21 11:11:47;;;;;;;0.00;0.00;;;25.80;72.40;;;;;;5071571;28;20021;-84
2021/05/21 11:14:37;;;;;;;0.20;0.20;;;27.30;67.30;;;;;;5071968;28;20032;-84
2021/05/21 11:17:25;;;;;;;0.30;0.15;;;25.00;65.60;;;;;;5054176;28;20059;-83
2021/05/21 11:20:13;;;;;;;0.00;0.00;;;23.60;72.60;;;;;;5067554;28;20051;-83
2021/05/21 11:22:39;;;;;;;0.15;0.15;;;24.00;75.90;;;;;;5067453;28;20031;-83
2021/05/21 11:25:17;;;;;;;;;;;23.80;74.50;;;;;;5059896;28;20569;-84
2021/05/21 11:27:43;;;;;;;0.00;0.00;;;24.60;68.90;;;;;;5060789;28;19920;-84
2021/05/21 11:30:13;;;;;;;0.00;0.00;;;23.60;70.30;;;;;;5059299;28;20025;-84
2021/05/21 11:32:40;;;;;;;0.00;0.00;;;23.20;70.90;;;;;;5059762;28;20025;-84
2021/05/21 11:35:08;;;;;;;0.00;0.00;;;23.20;72.20;;;;;;5049172;28;20033;-83
2021/05/21 11:37:35;;;;;;;2.85;0.63;;;23.40;71.50;;;;;;5065007;28;20037;-83
2021/05/21 11:40:06;;;;;;;0.25;0.25;;;23.80;71.80;;;;;;5060278;28;20033;-84
2021/05/21 11:42:32;;;;;;;0.10;0.10;;;23.30;70.90;;;;;;5071419;28;20037;-84
2021/05/21 11:44:59;;;;;;;0.13;0.13;;;23.60;71.00;;;;;;5068705;28;20028;-84
2021/05/21 11:47:36;;;;;;;;;;;24.10;70.70;;;;;;5067685;28;20617;-84
2021/05/21 11:50:05;;;;;;;0.00;0.00;;;23.70;74.30;;;;;;5067527;28;19908;-84
2021/05/21 11:52:31;;;;;;;0.00;0.00;;;22.10;74.50;;;;;;5070495;28;20056;-84
2021/05/21 11:54:57;;;;;;;0.20;0.10;;;21.80;76.50;;;;;;5065760;28;20106;-84
2021/05/21 11:57:24;;;;;;;;;;;21.70;78.50;;;;;;5069882;28;20032;-85
2021/05/21 11:59:54;;;;;;;0.22;0.03;;;21.60;79.00;;;;;;5069734;28;19912;-84
2021/05/21 12:02:20;;;;;;;0.65;0.28;;;22.60;77.10;;;;;;5062452;28;20039;-84
2021/05/21 12:04:48;;;;;;;0.10;0.10;;;21.40;79.00;;;;;;5060653;28;20040;-84
2021/05/21 12:07:22;;;;;;;0.00;0.00;;;21.50;79.40;;;;;;5068616;28;20036;-84
2021/05/21 12:10:03;;;;;;;0.00;0.00;;;23.10;75.60;;;;;;5053641;28;20503;-84
2021/05/21 12:12:34;;;;;;;0.00;0.00;;;22.20;75.50;;;;;;5064856;28;20025;-82
2021/05/21 12:15:07;;;;;;;0.00;0.00;;;22.60;77.60;;;;;;5067587;28;20116;-82
2021/05/21 12:17:35;;;;;;;3.17;0.03;;;23.00;76.20;;;;;;5069301;28;20044;-83
2021/05/21 12:20:06;;;;;;;0.00;0.00;;;22.50;76.70;;;;;;5068261;28;20028;-82
2021/05/21 12:22:32;;;;;;;0.00;0.00;;;21.30;79.90;;;;;;5066770;28;20035;-83
2021/05/21 12:24:58;;;;;;;0.33;0.03;;;21.90;80.20;;;;;;5067905;28;20028;-83
2021/05/21 12:27:26;;;;;;;0.00;0.00;;;22.60;79.30;;;;;;5069569;28;20105;-82
2021/05/21 12:29:53;;;;;;;0.00;0.00;;;23.50;78.70;;;;;;5068579;28;20454;-82
2021/05/21 12:32:19;;;;;;;0.00;0.00;;;23.40;79.80;;;;;;5066252;28;20071;-83
2021/05/21 12:34:51;;;;;;;0.10;0.10;;;23.40;77.40;;;;;;5069322;28;20028;-83
2021/05/21 12:37:23;;;;;;;0.10;0.10;;;23.30;78.20;;;;;;5068519;28;20039;-82
2021/05/21 12:39:49;;;;;;;0.32;0.32;;;22.70;80.30;;;;;;5069560;28;20028;-83
2021/05/21 12:42:16;;;;;;;0.00;0.00;;;22.60;82.50;;;;;;5067778;28;20066;-82
2021/05/21 12:44:53;;;;;;;0.00;0.00;;;21.70;80.90;;;;;;5057144;28;20032;-83
2021/05/21 12:47:23;;;;;;;0.00;0.00;;;20.90;84.40;;;;;;5068292;28;20390;-82
2021/05/21 12:49:50;;;;;;;0.10;0.10;;;20.40;93.80;;;;;;5069147;28;20488;-82
2021/05/21 12:52:17;;;;;;;0.03;0.03;;;20.80;86.80;;;;;;5068650;28;20104;-82
2021/05/21 12:54:46;;;;;;;0.00;0.00;;;20.80;86.40;;;;;;5064583;28;20074;-82
2021/05/21 12:57:22;;;;;;;0.00;0.00;;;20.00;87.60;;;;;;5068106;28;20047;-82
2021/05/21 12:59:57;;;;;;;0.00;0.00;;;20.50;85.60;;;;;;5068695;28;20024;-82
2021/05/21 13:02:27;;;;;;;0.10;0.10;;;21.10;85.00;;;;;;5062142;28;20776;-82
2021/05/21 13:05:13;;;;;;;0.00;0.00;;;21.10;83.50;;;;;;5066613;28;20028;-82
2021/05/21 13:07:40;;;;;;;;;;;22.10;82.30;;;;;;5069299;28;20025;-82